createdAt,value
2023-05-04T00:02:06.498Z,81.80
2023-05-04T00:04:34.842Z,82.40
2023-05-04T00:07:03.217Z,81.80
2023-05-04T00:09:31.842Z,81.30
2023-05-04T00:12:00.231Z,81.20
2023-05-04T00:14:29.945Z,81.50
2023-05-04T00:16:58.211Z,81.60
2023-05-04T00:19:26.527Z,82.40
2023-05-04T00:21:54.850Z,82.40
2023-05-04T00:24:23.155Z,83.00
2023-05-04T00:26:51.512Z,82.20
2023-05-04T00:29:19.854Z,82.20
2023-05-04T00:31:49.643Z,82.90
2023-05-04T00:34:18.548Z,82.20
2023-05-04T00:36:47.301Z,81.90
2023-05-04T00:39:15.810Z,82.40
2023-05-04T00:41:44.642Z,82.50
2023-05-04T00:44:13.091Z,82.50
2023-05-04T00:46:41.827Z,82.50
2023-05-04T00:49:11.790Z,82.40
2023-05-04T00:51:41.030Z,82.20
2023-05-04T00:54:09.328Z,82.10
2023-05-04T00:56:42.284Z,82.60
2023-05-04T00:59:10.970Z,83.60
2023-05-04T01:01:39.362Z,83.00
2023-05-04T01:04:08.522Z,83.20
2023-05-04T01:06:44.965Z,83.30
2023-05-04T01:09:20.475Z,82.80
2023-05-04T01:11:56.117Z,83.60
2023-05-04T01:14:24.532Z,83.50
2023-05-04T01:16:56.573Z,83.60
2023-05-04T01:19:25.092Z,83.70
2023-05-04T01:21:54.868Z,83.80
2023-05-04T01:24:24.188Z,84.00
2023-05-04T01:26:57.544Z,84.90
2023-05-04T01:29:33.034Z,84.40
2023-05-04T01:32:03.663Z,86.60
2023-05-04T01:34:32.159Z,86.10
2023-05-04T01:37:02.559Z,86.50
2023-05-04T01:39:31.119Z,87.20
2023-05-04T01:41:59.515Z,86.90
2023-05-04T01:44:27.818Z,87.30
2023-05-04T01:46:56.235Z,87.00
2023-05-04T01:49:24.667Z,87.90
2023-05-04T01:51:53.000Z,88.30
2023-05-04T01:54:22.634Z,88.20
2023-05-04T01:56:51.110Z,88.90
2023-05-04T01:59:19.392Z,89.50
2023-05-04T02:01:47.755Z,90.30
2023-05-04T02:04:16.176Z,90.20
2023-05-04T02:06:44.430Z,90.20
2023-05-04T02:09:12.856Z,90.70
2023-05-04T02:11:42.520Z,90.50
2023-05-04T02:14:10.876Z,90.20
2023-05-04T02:16:39.940Z,90.40
2023-05-04T02:19:08.360Z,90.30
2023-05-04T02:21:36.720Z,90.20
2023-05-04T02:24:06.995Z,90.10
2023-05-04T02:26:36.341Z,90.30
2023-05-04T02:29:06.390Z,90.00
2023-05-04T02:31:35.116Z,89.90
2023-05-04T02:34:03.651Z,90.00
2023-05-04T02:36:31.991Z,90.00
2023-05-04T02:39:00.562Z,89.90
2023-05-04T02:41:28.894Z,89.90
2023-05-04T02:43:57.443Z,90.20
2023-05-04T02:46:27.563Z,90.10
2023-05-04T02:48:56.284Z,90.20
2023-05-04T02:51:24.805Z,90.40
2023-05-04T02:53:53.136Z,90.60
2023-05-04T02:56:21.484Z,90.90
2023-05-04T02:58:49.772Z,90.60
2023-05-04T03:01:18.153Z,90.90
2023-05-04T03:03:47.941Z,90.70
2023-05-04T03:06:16.322Z,90.70
2023-05-04T03:08:44.582Z,91.00
2023-05-04T03:11:12.900Z,91.00
2023-05-04T03:13:41.218Z,91.60
2023-05-04T03:16:09.522Z,91.50
2023-05-04T03:18:37.946Z,91.70
2023-05-04T03:21:07.668Z,91.60
2023-05-04T03:23:36.413Z,91.90
2023-05-04T03:26:05.060Z,92.20
2023-05-04T03:28:33.477Z,92.10
2023-05-04T03:31:01.828Z,92.00
2023-05-04T03:33:30.128Z,91.70
2023-05-04T03:35:59.737Z,91.60
2023-05-04T03:38:29.499Z,91.50
2023-05-04T03:40:57.751Z,91.50
2023-05-04T03:43:26.065Z,91.90
2023-05-04T03:45:54.339Z,92.30
2023-05-04T03:48:22.727Z,92.00
2023-05-04T03:50:51.028Z,92.10
2023-05-04T03:53:19.356Z,92.20
2023-05-04T03:55:49.046Z,92.10
2023-05-04T03:58:17.367Z,92.30
2023-05-04T04:00:45.703Z,92.90
2023-05-04T04:03:14.196Z,93.00
2023-05-04T04:05:42.792Z,93.00
2023-05-04T04:08:11.160Z,93.00
2023-05-04T04:10:39.540Z,92.80
2023-05-04T04:13:09.323Z,92.80
2023-05-04T04:15:37.685Z,92.90
2023-05-04T04:18:06.161Z,93.00
2023-05-04T04:20:34.772Z,93.20
2023-05-04T04:23:03.153Z,93.40
2023-05-04T04:25:31.688Z,93.30
2023-05-04T04:27:59.932Z,93.10
2023-05-04T04:30:29.655Z,93.30
2023-05-04T04:32:57.964Z,93.20
2023-05-04T04:35:27.539Z,93.30
2023-05-04T04:37:55.923Z,93.10
2023-05-04T04:40:24.453Z,93.10
2023-05-04T04:42:53.010Z,93.10
2023-05-04T04:45:21.643Z,93.10
2023-05-04T04:47:51.488Z,93.30
2023-05-04T04:50:19.981Z,93.30
2023-05-04T04:52:48.335Z,93.30
2023-05-04T04:55:17.337Z,93.10
2023-05-04T04:57:45.660Z,93.60
2023-05-04T05:00:14.902Z,93.40
2023-05-04T05:02:43.842Z,93.60
2023-05-04T05:05:14.045Z,93.50
2023-05-04T05:07:42.795Z,93.50
2023-05-04T05:10:12.566Z,93.70
2023-05-04T05:12:41.560Z,93.70
2023-05-04T05:15:10.736Z,93.60
2023-05-04T05:17:39.378Z,93.40
2023-05-04T05:20:10.953Z,93.20
2023-05-04T05:22:40.957Z,93.20
2023-05-04T05:25:09.896Z,93.20
2023-05-04T05:27:38.261Z,93.10
2023-05-04T05:30:07.930Z,92.90
2023-05-04T05:32:36.405Z,92.80
2023-05-04T05:35:04.969Z,92.70
2023-05-04T05:37:33.478Z,92.70
2023-05-04T05:40:06.188Z,92.80
2023-05-04T05:42:34.902Z,92.90
2023-05-04T05:45:04.747Z,92.80
2023-05-04T05:47:33.169Z,92.80
2023-05-04T05:50:01.458Z,92.70
2023-05-04T05:52:29.825Z,92.90
2023-05-04T05:55:02.256Z,92.80
2023-05-04T05:57:39.696Z,93.10
2023-05-04T06:00:09.928Z,93.00
2023-05-04T06:02:38.586Z,93.10
2023-05-04T06:05:07.448Z,93.10
2023-05-04T06:07:36.442Z,93.40
2023-05-04T06:10:05.499Z,93.30
2023-05-04T06:12:35.605Z,93.20
2023-05-04T06:15:03.976Z,93.50
2023-05-04T06:17:32.400Z,93.40
2023-05-04T06:20:00.682Z,93.30
2023-05-04T06:22:29.055Z,93.30
2023-05-04T06:25:02.763Z,93.60
2023-05-04T06:27:32.994Z,93.60
2023-05-04T06:30:02.850Z,93.60
2023-05-04T06:32:31.351Z,93.60
2023-05-04T06:35:00.194Z,93.80
2023-05-04T06:37:28.575Z,93.70
2023-05-04T06:39:57.099Z,93.70
2023-05-04T06:42:25.600Z,93.80
2023-05-04T06:44:53.935Z,93.90
2023-05-04T06:47:23.836Z,93.90
2023-05-04T06:49:52.243Z,93.90
2023-05-04T06:52:21.726Z,93.90
2023-05-04T06:54:49.979Z,93.90
2023-05-04T06:57:18.252Z,94.00
2023-05-04T06:59:46.641Z,94.10
2023-05-04T07:02:15.031Z,94.20
2023-05-04T07:04:44.878Z,94.30
2023-05-04T07:07:13.222Z,94.20
2023-05-04T07:09:43.700Z,94.60
2023-05-04T07:12:12.062Z,94.30
2023-05-04T07:14:40.368Z,94.50
2023-05-04T07:17:10.110Z,94.40
2023-05-04T07:19:38.432Z,94.50
2023-05-04T07:22:08.084Z,94.60
2023-05-04T07:24:36.447Z,94.40
2023-05-04T07:27:04.845Z,94.70
2023-05-04T07:29:33.509Z,94.50
2023-05-04T07:32:01.977Z,94.50
2023-05-04T07:34:41.754Z,94.50
2023-05-04T07:37:15.911Z,94.40
2023-05-04T07:39:44.421Z,94.50
2023-05-04T07:42:12.892Z,94.70
2023-05-04T07:44:41.468Z,94.60
2023-05-04T07:47:10.216Z,94.80
2023-05-04T07:49:38.571Z,95.10
2023-05-04T07:52:07.174Z,94.60
2023-05-04T07:54:37.431Z,94.50
2023-05-04T07:57:05.996Z,94.50
2023-05-04T07:59:34.345Z,94.40
2023-05-04T08:02:02.889Z,94.80
2023-05-04T08:04:31.671Z,94.50
2023-05-04T08:07:00.054Z,94.40
2023-05-04T08:09:28.464Z,94.50
2023-05-04T08:11:58.247Z,94.70
2023-05-04T08:14:26.614Z,94.40
2023-05-04T08:16:55.011Z,94.40
2023-05-04T08:19:23.787Z,94.40
2023-05-04T08:21:53.118Z,94.60
2023-05-04T08:24:21.476Z,94.60
2023-05-04T08:27:03.666Z,94.40
2023-05-04T08:29:37.445Z,94.60
2023-05-04T08:32:07.767Z,94.70
2023-05-04T08:34:37.528Z,94.50
2023-05-04T08:37:06.189Z,94.50
2023-05-04T08:39:34.678Z,94.80
2023-05-04T08:42:03.700Z,94.70
2023-05-04T08:44:32.126Z,94.40
2023-05-04T08:47:04.888Z,94.50
2023-05-04T08:49:33.523Z,94.50
2023-05-04T08:52:02.487Z,94.50
2023-05-04T08:54:30.978Z,94.50
2023-05-04T08:56:59.825Z,94.60
2023-05-04T08:59:30.310Z,94.70
2023-05-04T09:02:00.032Z,94.50
2023-05-04T09:04:29.952Z,94.50
2023-05-04T09:06:59.021Z,94.40
2023-05-04T09:09:29.744Z,94.90
2023-05-04T09:11:59.117Z,94.60
2023-05-04T09:14:35.749Z,94.70
2023-05-04T09:17:13.437Z,94.80
2023-05-04T09:19:44.868Z,95.10
2023-05-04T09:22:17.394Z,95.10
2023-05-04T09:24:46.620Z,95.20
2023-05-04T09:27:18.366Z,95.00
2023-05-04T09:29:54.842Z,95.00
2023-05-04T09:32:24.283Z,95.00
2023-05-04T09:34:55.126Z,95.00
2023-05-04T09:37:24.133Z,95.00
2023-05-04T09:39:57.008Z,95.10
2023-05-04T09:42:25.824Z,95.00
2023-05-04T09:45:05.148Z,95.40
2023-05-04T09:47:38.497Z,95.40
2023-05-04T09:50:18.337Z,95.20
2023-05-04T09:52:48.554Z,95.40
2023-05-04T09:55:18.640Z,95.60
2023-05-04T09:57:48.254Z,95.70
2023-05-04T10:00:18.407Z,95.60
2023-05-04T10:02:48.126Z,95.70
2023-05-04T10:05:21.397Z,95.60
2023-05-04T10:07:49.875Z,95.70
2023-05-04T10:10:18.310Z,95.60
2023-05-04T10:12:46.939Z,95.60
2023-05-04T10:15:17.202Z,95.50
2023-05-04T10:18:07.109Z,95.30
2023-05-04T10:20:53.796Z,95.30
2023-05-04T10:23:48.053Z,95.30
2023-05-04T10:26:38.789Z,95.30
2023-05-04T10:29:14.588Z,95.30
2023-05-04T10:31:44.713Z,95.30
2023-05-04T10:34:13.365Z,95.20
2023-05-04T10:36:43.100Z,95.20
2023-05-04T10:39:20.444Z,95.10
2023-05-04T10:42:03.801Z,95.10
2023-05-04T10:44:33.291Z,95.10
2023-05-04T10:47:05.486Z,95.00
2023-05-04T10:49:34.763Z,95.20
2023-05-04T10:52:10.015Z,95.10
2023-05-04T10:54:39.150Z,95.20
2023-05-04T10:57:09.248Z,95.10
2023-05-04T10:59:38.222Z,95.10
2023-05-04T11:02:07.792Z,95.00
2023-05-04T11:04:36.467Z,95.00
2023-05-04T11:07:06.934Z,95.00
2023-05-04T11:09:40.801Z,94.80
2023-05-04T11:12:11.598Z,94.30
2023-05-04T11:14:43.364Z,93.90
2023-05-04T11:17:27.414Z,93.70
2023-05-04T11:19:57.064Z,93.40
2023-05-04T11:22:25.537Z,92.80
2023-05-04T11:24:56.317Z,92.90
2023-05-04T11:27:26.115Z,92.80
2023-05-04T11:29:58.823Z,92.90
2023-05-04T11:32:38.069Z,92.90
2023-05-04T11:35:10.180Z,92.70
2023-05-04T11:37:42.180Z,92.60
2023-05-04T11:40:14.205Z,92.50
2023-05-04T11:42:46.201Z,92.60
2023-05-04T11:45:18.441Z,92.60
2023-05-04T11:47:47.478Z,92.50
2023-05-04T11:50:17.839Z,92.30
2023-05-04T11:52:46.274Z,92.30
2023-05-04T11:55:28.618Z,92.30
2023-05-04T11:58:00.442Z,92.30
2023-05-04T12:00:40.142Z,92.20
2023-05-04T12:03:09.878Z,91.70
2023-05-04T12:05:39.005Z,91.10
2023-05-04T12:08:12.498Z,91.10
2023-05-04T12:10:42.299Z,91.20
2023-05-04T12:13:18.114Z,90.60
2023-05-04T12:15:46.762Z,90.70
2023-05-04T12:18:29.704Z,90.60
2023-05-04T12:20:58.152Z,90.40
2023-05-04T12:23:26.432Z,90.20
2023-05-04T12:25:58.341Z,90.20
2023-05-04T12:28:30.663Z,90.10
2023-05-04T12:30:59.854Z,90.00
2023-05-04T12:33:28.529Z,89.60
2023-05-04T12:35:56.909Z,89.80
2023-05-04T12:38:25.622Z,89.80
2023-05-04T12:40:55.500Z,89.60
2023-05-04T12:43:23.949Z,88.90
2023-05-04T12:45:52.977Z,89.10
2023-05-04T12:48:22.116Z,88.70
2023-05-04T12:50:51.327Z,88.60
2023-05-04T12:53:22.344Z,88.40
2023-05-04T12:55:50.785Z,88.10
2023-05-04T12:58:20.504Z,87.70
2023-05-04T13:00:51.840Z,87.80
2023-05-04T13:03:20.366Z,87.40
2023-05-04T13:05:49.866Z,87.10
2023-05-04T13:08:19.826Z,87.20
2023-05-04T13:10:48.521Z,85.50
2023-05-04T13:13:18.116Z,85.20
2023-05-04T13:15:51.476Z,85.20
2023-05-04T13:18:26.958Z,85.00
2023-05-04T13:21:32.171Z,85.00
2023-05-04T13:24:03.427Z,85.10
2023-05-04T13:26:37.729Z,84.20
2023-05-04T13:29:06.191Z,83.70
2023-05-04T13:31:36.005Z,83.60
2023-05-04T13:34:07.635Z,83.70
2023-05-04T13:36:36.219Z,83.60
2023-05-04T13:39:11.299Z,83.50
2023-05-04T13:41:39.705Z,82.90
2023-05-04T13:44:08.011Z,81.80
2023-05-04T13:46:38.239Z,80.80
2023-05-04T13:49:06.619Z,81.30
2023-05-04T13:51:35.184Z,81.10
2023-05-04T13:54:03.792Z,81.50
2023-05-04T13:56:32.196Z,81.90
2023-05-04T13:59:00.467Z,82.00
2023-05-04T14:01:28.779Z,82.00
2023-05-04T14:03:58.533Z,81.90
2023-05-04T14:06:29.707Z,81.90
2023-05-04T14:08:58.051Z,82.10
2023-05-04T14:11:26.494Z,82.40
2023-05-04T14:13:55.989Z,82.60
2023-05-04T14:16:24.443Z,82.70
2023-05-04T14:18:52.884Z,83.30
2023-05-04T14:21:22.665Z,83.30
2023-05-04T14:23:50.959Z,83.30
2023-05-04T14:26:19.244Z,83.30
2023-05-04T14:28:48.228Z,83.50
2023-05-04T14:31:16.630Z,83.70
2023-05-04T14:33:45.046Z,83.60
2023-05-04T14:36:13.944Z,83.80
2023-05-04T14:38:43.670Z,83.80
2023-05-04T14:41:13.748Z,84.10
2023-05-04T14:43:42.525Z,84.00
2023-05-04T14:46:12.755Z,84.10
2023-05-04T14:48:41.217Z,84.40
2023-05-04T14:51:09.520Z,84.10
2023-05-04T14:53:39.262Z,84.20
2023-05-04T14:56:09.625Z,84.20
2023-05-04T14:58:38.001Z,84.50
2023-05-04T15:01:06.672Z,84.50
2023-05-04T15:03:35.065Z,84.40
2023-05-04T15:06:03.770Z,84.50
2023-05-04T15:08:32.095Z,84.80
2023-05-04T15:11:00.553Z,85.00
2023-05-04T15:13:31.860Z,85.00
2023-05-04T15:16:00.223Z,85.00
2023-05-04T15:18:28.907Z,85.10
2023-05-04T15:20:57.245Z,85.60
2023-05-04T15:23:25.532Z,86.00
2023-05-04T15:25:53.874Z,86.20
2023-05-04T15:28:23.023Z,86.60
2023-05-04T15:30:52.880Z,86.90
2023-05-04T15:33:21.743Z,87.30
2023-05-04T15:35:49.996Z,87.20
2023-05-04T15:38:18.320Z,86.90
2023-05-04T15:40:46.765Z,86.80
2023-05-04T15:43:15.311Z,87.30
2023-05-04T15:45:43.754Z,87.20
2023-05-04T15:48:13.516Z,87.00
2023-05-04T15:50:42.910Z,87.00
2023-05-04T15:53:11.284Z,86.90
2023-05-04T15:55:40.318Z,86.80
2023-05-04T15:58:08.830Z,86.50
2023-05-04T16:00:37.730Z,86.20
2023-05-04T16:03:06.885Z,86.10
2023-05-04T16:05:37.084Z,85.90
2023-05-04T16:08:05.682Z,85.80
2023-05-04T16:10:34.429Z,85.80
2023-05-04T16:13:04.358Z,85.60
2023-05-04T16:15:32.878Z,85.50
2023-05-04T16:18:01.276Z,85.50
2023-05-04T16:20:30.358Z,85.40
2023-05-04T16:23:00.086Z,85.40
2023-05-04T16:25:28.399Z,85.20
2023-05-04T16:27:57.242Z,85.40
2023-05-04T16:30:32.237Z,85.10
2023-05-04T16:33:01.295Z,84.70
2023-05-04T16:35:30.722Z,84.70
2023-05-04T16:38:00.664Z,84.50
2023-05-04T16:40:29.408Z,84.50
2023-05-04T16:42:57.704Z,84.40
2023-05-04T16:45:31.213Z,84.20
2023-05-04T16:47:59.883Z,84.20
2023-05-04T16:50:31.663Z,84.30
2023-05-04T16:53:01.440Z,84.40
2023-05-04T16:55:29.770Z,84.30
2023-05-04T16:57:59.790Z,84.40
2023-05-04T17:00:29.272Z,84.40
2023-05-04T17:02:57.731Z,84.40
2023-05-04T17:05:26.554Z,84.40
2023-05-04T17:07:59.181Z,84.60
2023-05-04T17:10:29.064Z,84.70
2023-05-04T17:12:57.521Z,84.70
2023-05-04T17:15:29.443Z,84.70
2023-05-04T17:17:57.788Z,84.80
2023-05-04T17:20:30.057Z,85.10
2023-05-04T17:22:58.936Z,85.20
2023-05-04T17:25:28.843Z,85.20
2023-05-04T17:27:57.470Z,85.10
2023-05-04T17:30:26.139Z,85.10
2023-05-04T17:32:57.126Z,85.20
2023-05-04T17:35:26.767Z,85.20
2023-05-04T17:37:58.527Z,85.20
2023-05-04T17:40:29.234Z,85.20
2023-05-04T17:42:57.952Z,85.20
2023-05-04T17:45:26.460Z,85.20
2023-05-04T17:48:00.840Z,85.20
2023-05-04T17:50:29.316Z,85.20
2023-05-04T17:53:00.863Z,85.20
2023-05-04T17:55:30.797Z,85.20
2023-05-04T17:57:59.351Z,85.10
2023-05-04T18:00:28.039Z,85.10
2023-05-04T18:02:56.452Z,85.30
2023-05-04T18:05:25.775Z,85.30
2023-05-04T18:07:54.127Z,85.30
2023-05-04T18:10:22.625Z,85.40
2023-05-04T18:12:52.384Z,85.50
2023-05-04T18:15:20.948Z,85.70
2023-05-04T18:17:50.777Z,85.60
2023-05-04T18:20:23.946Z,85.60
2023-05-04T18:22:54.266Z,85.60
2023-05-04T18:25:22.761Z,85.60
2023-05-04T18:27:52.493Z,85.70
2023-05-04T18:30:20.900Z,85.80
2023-05-04T18:32:50.982Z,85.70
2023-05-04T18:35:22.161Z,85.90
2023-05-04T18:37:50.982Z,85.80
2023-05-04T18:40:19.474Z,85.80
2023-05-04T18:42:47.757Z,85.80
2023-05-04T18:45:17.567Z,85.80
2023-05-04T18:47:46.017Z,85.80
2023-05-04T18:50:14.698Z,85.90
2023-05-04T18:52:43.131Z,85.90
2023-05-04T18:55:11.857Z,86.00
2023-05-04T18:57:41.443Z,86.10
2023-05-04T19:00:11.737Z,86.20
2023-05-04T19:02:41.492Z,86.20
2023-05-04T19:05:12.317Z,86.30
2023-05-04T19:07:42.882Z,86.40
2023-05-04T19:10:12.342Z,86.60
2023-05-04T19:12:40.665Z,86.70
2023-05-04T19:15:09.986Z,86.90
2023-05-04T19:17:38.289Z,86.90
2023-05-04T19:20:09.718Z,86.90
2023-05-04T19:22:38.126Z,86.90
2023-05-04T19:25:07.967Z,87.10
2023-05-04T19:27:36.321Z,87.10
2023-05-04T19:30:05.286Z,87.20
2023-05-04T19:32:33.812Z,87.40
2023-05-04T19:35:02.140Z,87.20
2023-05-04T19:37:33.903Z,87.20
2023-05-04T19:40:02.461Z,87.20
2023-05-04T19:42:30.995Z,87.10
2023-05-04T19:44:59.243Z,87.10
2023-05-04T19:47:29.925Z,87.20
2023-05-04T19:49:58.277Z,87.10
2023-05-04T19:52:26.597Z,87.30
2023-05-04T19:54:56.454Z,87.20
2023-05-04T19:57:24.793Z,87.20
2023-05-04T19:59:53.174Z,87.20
2023-05-04T20:02:21.502Z,87.20
2023-05-04T20:04:49.887Z,87.30
2023-05-04T20:07:18.284Z,87.40
2023-05-04T20:09:46.703Z,87.70
2023-05-04T20:12:16.387Z,87.90
2023-05-04T20:14:44.686Z,87.80
2023-05-04T20:17:12.993Z,87.80
2023-05-04T20:19:43.072Z,88.00
2023-05-04T20:22:11.548Z,88.00
2023-05-04T20:24:40.887Z,88.10
2023-05-04T20:27:09.516Z,88.00
2023-05-04T20:29:39.324Z,88.10
2023-05-04T20:32:09.027Z,88.80
2023-05-04T20:34:39.540Z,88.40
2023-05-04T20:37:08.009Z,88.70
2023-05-04T20:39:36.330Z,88.60
2023-05-04T20:42:05.688Z,88.70
2023-05-04T20:44:35.249Z,88.70
2023-05-04T20:47:05.658Z,88.70
2023-05-04T20:49:33.991Z,88.80
2023-05-04T20:52:02.276Z,89.30
2023-05-04T20:54:30.566Z,89.30
2023-05-04T20:57:01.768Z,89.80
2023-05-04T20:59:30.191Z,90.00
2023-05-04T21:01:58.887Z,89.80
2023-05-04T21:04:28.599Z,90.00
2023-05-04T21:06:58.165Z,90.00
2023-05-04T21:09:28.185Z,90.00
2023-05-04T21:11:56.525Z,90.00
2023-05-04T21:14:25.010Z,90.00
2023-05-04T21:16:53.341Z,90.00
2023-05-04T21:19:21.648Z,90.00
2023-05-04T21:21:51.358Z,90.00
2023-05-04T21:24:21.965Z,90.00
2023-05-04T21:26:50.854Z,90.00
2023-05-04T21:29:19.143Z,90.00
2023-05-04T21:31:50.369Z,89.90
2023-05-04T21:34:21.594Z,90.00
2023-05-04T21:36:51.359Z,90.00
2023-05-04T21:39:19.663Z,90.00
2023-05-04T21:41:48.032Z,90.00
2023-05-04T21:44:16.328Z,90.00
2023-05-04T21:46:46.608Z,90.00
2023-05-04T21:49:14.931Z,90.00
2023-05-04T21:51:43.247Z,90.00
2023-05-04T21:54:12.976Z,90.00
2023-05-04T21:56:42.546Z,90.00
2023-05-04T21:59:10.879Z,90.00
2023-05-04T22:01:39.138Z,89.90
2023-05-04T22:04:08.131Z,89.90
2023-05-04T22:06:36.801Z,89.80
2023-05-04T22:09:05.358Z,89.70
2023-05-04T22:11:35.104Z,89.70
2023-05-04T22:14:03.451Z,89.70
2023-05-04T22:16:31.791Z,89.50
2023-05-04T22:19:00.591Z,89.50
2023-05-04T22:21:28.938Z,89.50
2023-05-04T22:23:57.391Z,89.40
2023-05-04T22:26:25.795Z,89.30
2023-05-04T22:28:55.580Z,89.30
2023-05-04T22:31:24.041Z,89.20
2023-05-04T22:33:52.504Z,89.20
2023-05-04T22:36:20.829Z,89.20
2023-05-04T22:38:51.654Z,89.10
2023-05-04T22:41:19.994Z,89.20
2023-05-04T22:43:48.236Z,89.10
2023-05-04T22:46:18.423Z,89.10
2023-05-04T22:48:47.992Z,89.10
2023-05-04T22:51:16.429Z,89.00
2023-05-04T22:53:45.024Z,89.20
2023-05-04T22:56:13.379Z,89.20
2023-05-04T22:58:41.967Z,89.10
2023-05-04T23:01:11.779Z,89.10
2023-05-04T23:03:41.665Z,89.10
2023-05-04T23:06:10.197Z,89.10
2023-05-04T23:08:38.747Z,89.10
2023-05-04T23:11:07.151Z,89.10
2023-05-04T23:13:35.436Z,89.10
2023-05-04T23:16:03.980Z,88.90
2023-05-04T23:18:33.145Z,89.00
2023-05-04T23:21:02.995Z,88.90
2023-05-04T23:23:31.302Z,88.80
2023-05-04T23:25:59.525Z,88.80
2023-05-04T23:28:27.798Z,88.80
2023-05-04T23:30:56.320Z,88.80
2023-05-04T23:33:24.704Z,88.80
2023-05-04T23:35:56.439Z,88.60
2023-05-04T23:38:26.211Z,88.60
2023-05-04T23:40:54.501Z,88.50
2023-05-04T23:43:23.624Z,88.70
2023-05-04T23:45:52.122Z,88.70
2023-05-04T23:48:20.483Z,88.80
2023-05-04T23:50:57.440Z,88.80
2023-05-04T23:53:27.212Z,88.90
2023-05-04T23:56:01.276Z,88.90
2023-05-04T23:58:31.596Z,89.10
